Tri-State/Milton J Ferguson Field (HTS)

 

Airport Diagram
Current Weather/Forecast (VFR Conditions)
METAR KHTS 182351Z 24004KT 10SM CLR 15/01 A2987 RMK AO2 SLP112 T01500006 10183 20150 58003
TAF KHTS 182320Z 1900/1924 VRB04KT P6SM FEW090 FM190400 00000KT P6SM BKN120 FM191500 26005KT P6SM SCT035

Airport Information

All Charts
General
Chart Name View
AIRPORT DIAGRAM
AIRPORT DIAGRAM
TAKEOFF MINIMUMS
ALTERNATE MINIMUMS
RADAR MINIMUMS
TAKEOFF MINIMUMS
ALTERNATE MINIMUMS
RADAR MINIMUMS
HOT SPOT
HOT SPOT

Approaches
Chart Name Download
ILS OR LOC RWY 12
ILS OR LOC RWY 30
RNAV (GPS) RWY 12
RNAV (GPS) RWY 30
ILS OR LOC RWY 12
ILS OR LOC RWY 30
RNAV (GPS) RWY 12
RNAV (GPS) RWY 30


Airport Statistics
Departures Arrivals Local
All Collected Stats since June 2016: 99 100 2
2021 Stats: 7 11 0
April Stats: 0 3 0

Inbound Traffic (Arrivals) - 0

No inbound traffic.


Outbound Traffic (Departures) - 0

No outbound traffic.


Local Traffic (Pattern) - 0

No local traffic.